Time;durP1;ratioP1;P1;durP2;ratioP2;P2;SDS_P1;SDS_P2;PMS_P1;PMS_P2;Temp;Humidity;BMP_temperature;BMP_pressure;BME280_temperature;BME280_humidity;BME280_pressure;Samples;Min_cycle;Max_cycle;Signal;HPM_P1;HPM_P2
2023/06/11 00:01:18;;;;;;;5.35;2.58;;;27.20;48.40;;;;;;5043448;28;20029;-78
2023/06/11 00:03:46;;;;;;;4.85;2.20;;;27.00;48.40;;;;;;5033645;28;20036;-79
2023/06/11 00:06:17;;;;;;;4.03;1.80;;;27.10;48.50;;;;;;5033475;28;20451;-78
2023/06/11 00:08:54;;;;;;;5.05;2.10;;;27.10;48.50;;;;;;5032123;28;20045;-78
2023/06/11 00:11:21;;;;;;;6.55;2.15;;;27.00;48.50;;;;;;5033219;28;20033;-78
2023/06/11 00:13:48;;;;;;;4.50;2.67;;;26.90;47.90;;;;;;5035916;28;20124;-78
2023/06/11 00:16:14;;;;;;;2.95;2.33;;;27.10;48.50;;;;;;5043575;28;20044;-78
2023/06/11 00:18:41;;;;;;;5.32;2.10;;;27.10;48.50;;;;;;5045775;28;20029;-78
2023/06/11 00:21:12;;;;;;;4.47;2.40;;;27.00;48.50;;;;;;5033308;28;20054;-78
2023/06/11 00:23:39;;;;;;;3.55;2.10;;;27.00;48.60;;;;;;5032989;28;20069;-78
2023/06/11 00:26:06;;;;;;;10.55;2.20;;;27.00;48.70;;;;;;5039675;28;20029;-78
2023/06/11 00:28:33;;;;;;;2.88;2.13;;;27.00;48.80;;;;;;5051253;28;20099;-78
2023/06/11 00:31:06;;;;;;;2.67;2.25;;;27.00;48.80;;;;;;5045710;28;20378;-78
2023/06/11 00:33:32;;;;;;;3.33;2.22;;;26.90;48.30;;;;;;5032966;28;20033;-78
2023/06/11 00:35:58;;;;;;;2.72;2.20;;;27.00;48.90;;;;;;5032567;28;20076;-78
2023/06/11 00:38:25;;;;;;;2.80;1.90;;;27.00;48.90;;;;;;5042742;28;20392;-78
2023/06/11 00:40:51;;;;;;;2.13;1.90;;;27.10;49.00;;;;;;5051073;28;20397;-78
2023/06/11 00:43:21;;;;;;;2.85;1.92;;;27.10;49.00;;;;;;5054568;28;20024;-78
2023/06/11 00:45:50;;;;;;;3.42;2.30;;;27.00;49.00;;;;;;5050517;28;20037;-78
2023/06/11 00:48:19;;;;;;;4.75;2.03;;;27.00;49.10;;;;;;5071490;28;20396;-78
2023/06/11 00:50:51;;;;;;;1.85;1.73;;;26.90;48.50;;;;;;5054053;28;20043;-75
2023/06/11 00:53:19;;;;;;;3.87;2.70;;;27.00;49.10;;;;;;5051221;28;20039;-78
2023/06/11 00:55:46;;;;;;;4.13;2.30;;;27.10;49.00;;;;;;5052350;28;20029;-78
2023/06/11 00:58:14;;;;;;;2.25;2.05;;;27.10;49.10;;;;;;5048441;28;20813;-78
2023/06/11 01:00:55;;;;;;;5.20;2.33;;;27.10;49.10;;;;;;5030994;28;20029;-78
2023/06/11 01:03:26;;;;;;;3.13;2.83;;;26.90;48.40;;;;;;5032650;28;20061;-78
2023/06/11 01:06:06;;;;;;;2.13;1.92;;;27.10;49.10;;;;;;5059932;28;20041;-78
2023/06/11 01:08:38;;;;;;;2.20;1.92;;;27.00;49.10;;;;;;5072410;28;20495;-77
2023/06/11 01:11:08;;;;;;;;;;;26.90;48.50;;;;;;5073939;28;20060;-78
2023/06/11 01:13:36;;;;;;;2.55;2.03;;;26.90;48.50;;;;;;5052263;28;20038;-78
2023/06/11 01:16:12;;;;;;;3.63;2.33;;;26.90;48.50;;;;;;5060586;28;20036;-78
2023/06/11 01:18:53;;;;;;;2.95;2.72;;;26.90;48.60;;;;;;5065279;28;20182;-78
2023/06/11 01:21:29;;;;;;;3.75;2.80;;;26.80;48.70;;;;;;5068535;28;20068;-78
2023/06/11 01:24:03;;;;;;;4.75;2.90;;;27.00;49.30;;;;;;5018580;28;20041;-78
2023/06/11 01:27:06;;;;;;;5.32;3.53;;;27.00;49.40;;;;;;5018056;28;20483;-78
2023/06/11 01:29:37;;;;;;;3.10;2.37;;;26.90;48.80;;;;;;5029674;28;20117;-78
2023/06/11 01:32:05;;;;;;;5.32;2.28;;;27.00;49.40;;;;;;5016396;28;20037;-78
2023/06/11 01:34:32;;;;;;;2.58;2.22;;;26.90;48.90;;;;;;5033689;28;20049;-78
2023/06/11 01:36:59;;;;;;;2.75;2.30;;;27.00;49.50;;;;;;5030963;28;20701;-78
2023/06/11 01:39:25;;;;;;;2.35;2.10;;;26.90;48.90;;;;;;5033731;28;20117;-78
2023/06/11 01:41:59;;;;;;;2.33;2.10;;;27.00;49.50;;;;;;5033669;28;20044;-78
2023/06/11 01:44:26;;;;;;;2.65;2.45;;;27.00;49.60;;;;;;5023864;28;20048;-78
2023/06/11 01:46:52;;;;;;;3.47;2.45;;;27.00;49.60;;;;;;5033558;28;20497;-78
2023/06/11 01:49:18;;;;;;;3.85;2.65;;;27.00;49.60;;;;;;5037696;28;20048;-78
2023/06/11 01:51:45;;;;;;;5.53;3.28;;;27.00;49.40;;;;;;5037097;28;20037;-78
2023/06/11 01:54:11;;;;;;;5.75;2.50;;;26.90;48.90;;;;;;5037011;28;20037;-78
2023/06/11 01:56:37;;;;;;;3.55;2.67;;;26.90;48.90;;;;;;5053440;28;20207;-78
2023/06/11 01:59:04;;;;;;;5.30;3.08;;;26.90;48.90;;;;;;5049297;28;20045;-78
2023/06/11 02:01:32;;;;;;;5.43;2.72;;;26.90;48.90;;;;;;5015403;28;20037;-78
2023/06/11 02:03:58;;;;;;;2.40;2.20;;;26.90;48.90;;;;;;5013457;28;20173;-78
2023/06/11 02:06:25;;;;;;;3.15;2.67;;;26.90;48.90;;;;;;5013613;28;20045;-78
2023/06/11 02:08:51;;;;;;;4.20;2.65;;;26.80;48.90;;;;;;5013476;28;20512;-78
2023/06/11 02:11:17;;;;;;;5.18;3.03;;;27.00;49.50;;;;;;5013517;28;20045;-78
2023/06/11 02:13:43;;;;;;;6.57;2.83;;;26.90;49.00;;;;;;5018878;28;20575;-78
2023/06/11 02:16:09;;;;;;;5.35;2.60;;;26.80;49.10;;;;;;5008446;28;20378;-78
2023/06/11 02:18:35;;;;;;;4.65;2.20;;;26.90;49.10;;;;;;4997101;28;20046;-78
2023/06/11 02:21:01;;;;;;;4.60;2.50;;;26.90;49.10;;;;;;4996629;28;20470;-78
2023/06/11 02:23:29;;;;;;;3.63;2.63;;;26.80;49.10;;;;;;5002573;28;20046;-78
2023/06/11 02:25:55;;;;;;;6.97;2.92;;;26.90;49.20;;;;;;5029700;28;20038;-78
2023/06/11 02:28:21;;;;;;;3.22;2.80;;;27.00;49.70;;;;;;4998325;28;20154;-78
2023/06/11 02:30:47;;;;;;;7.97;3.13;;;26.90;49.20;;;;;;5012707;28;20061;-78
2023/06/11 02:33:13;;;;;;;5.10;2.72;;;26.90;49.20;;;;;;5001918;28;20461;-78
2023/06/11 02:35:39;;;;;;;2.65;2.45;;;26.90;49.20;;;;;;4990722;28;20505;-78
2023/06/11 02:38:06;;;;;;;4.97;3.03;;;26.90;49.20;;;;;;5013086;28;20087;-78
2023/06/11 02:40:32;;;;;;;7.50;3.15;;;26.90;49.20;;;;;;5032342;28;20049;-78
2023/06/11 02:42:58;;;;;;;3.63;2.78;;;27.00;49.80;;;;;;5015808;28;20033;-78
2023/06/11 02:45:24;;;;;;;6.03;2.72;;;27.00;49.80;;;;;;5033825;28;20072;-78
2023/06/11 02:47:50;;;;;;;4.15;3.33;;;27.00;49.80;;;;;;5052325;28;20044;-78
2023/06/11 02:50:16;;;;;;;4.20;2.70;;;26.90;49.20;;;;;;5026993;28;20071;-78
2023/06/11 02:52:42;;;;;;;4.80;3.20;;;27.00;49.80;;;;;;5015897;28;20128;-78
2023/06/11 02:55:08;;;;;;;5.97;3.20;;;27.00;49.80;;;;;;5016069;28;20072;-78
2023/06/11 02:57:34;;;;;;;3.50;2.95;;;26.80;49.30;;;;;;5032243;28;20034;-78
2023/06/11 03:00:00;;;;;;;4.82;3.13;;;26.80;49.30;;;;;;5033001;28;20045;-78
2023/06/11 03:02:26;;;;;;;5.45;3.22;;;26.90;49.50;;;;;;5034315;28;20041;-78
2023/06/11 03:04:52;;;;;;;5.05;3.42;;;26.90;49.50;;;;;;5055388;28;20033;-78
2023/06/11 03:07:19;;;;;;;6.80;3.25;;;26.80;49.40;;;;;;5071103;28;20040;-78
2023/06/11 03:09:45;;;;;;;8.02;3.60;;;26.90;49.40;;;;;;5074441;28;20058;-77
2023/06/11 03:12:12;;;;;;;3.22;2.92;;;26.80;49.50;;;;;;5040016;28;20500;-78
2023/06/11 03:14:39;;;;;;;2.88;2.65;;;27.00;50.00;;;;;;5050361;28;20036;-78
2023/06/11 03:17:05;;;;;;;5.07;3.30;;;26.90;49.50;;;;;;5056437;28;20403;-77
2023/06/11 03:19:31;;;;;;;3.78;2.75;;;26.90;49.40;;;;;;5038680;28;20048;-78
2023/06/11 03:21:58;;;;;;;4.07;3.05;;;26.80;49.50;;;;;;5044444;28;20120;-78
2023/06/11 03:24:25;;;;;;;3.83;3.53;;;26.80;49.50;;;;;;5053026;28;20170;-77
2023/06/11 03:26:56;;;;;;;7.72;3.40;;;26.80;49.50;;;;;;5038609;28;20074;-78
2023/06/11 03:29:22;;;;;;;4.13;3.13;;;26.90;49.50;;;;;;5061399;28;20033;-78
2023/06/11 03:31:53;;;;;;;3.72;3.08;;;26.80;49.50;;;;;;5051469;28;20074;-78
2023/06/11 03:34:21;;;;;;;4.03;2.80;;;26.80;49.50;;;;;;5035665;28;20507;-78
2023/06/11 03:36:47;;;;;;;4.53;3.25;;;26.80;49.50;;;;;;5038395;28;20033;-78
2023/06/11 03:39:16;;;;;;;4.15;3.42;;;26.80;49.70;;;;;;5033002;28;20038;-78
2023/06/11 03:41:44;;;;;;;5.50;3.78;;;26.80;49.80;;;;;;5032696;28;20037;-78
2023/06/11 03:44:12;;;;;;;4.40;2.85;;;26.70;49.70;;;;;;5032476;28;20104;-78
2023/06/11 03:46:38;;;;;;;3.75;3.08;;;26.80;49.90;;;;;;5054504;28;20102;-78
2023/06/11 03:49:04;;;;;;;3.67;3.30;;;26.90;49.90;;;;;;5063762;28;20071;-78
2023/06/11 03:51:31;;;;;;;4.47;2.75;;;26.80;49.90;;;;;;5049058;28;20514;-77
2023/06/11 03:53:57;;;;;;;5.93;3.33;;;26.80;49.90;;;;;;5033379;28;20033;-78
2023/06/11 03:56:23;;;;;;;4.22;3.65;;;26.90;50.00;;;;;;5036149;28;20040;-78
2023/06/11 03:58:49;;;;;;;4.15;3.17;;;27.00;50.60;;;;;;5065728;28;20047;-78
2023/06/11 04:01:15;;;;;;;3.15;2.85;;;26.90;50.00;;;;;;5031246;28;20073;-77
2023/06/11 04:03:42;;;;;;;5.50;3.50;;;26.90;50.00;;;;;;5071465;28;20048;-78
2023/06/11 04:06:09;;;;;;;3.67;2.97;;;27.00;50.60;;;;;;5074124;28;20036;-78
2023/06/11 04:08:35;;;;;;;4.78;3.53;;;27.00;50.60;;;;;;5073776;28;20039;-78
2023/06/11 04:11:01;;;;;;;3.88;2.75;;;27.00;50.60;;;;;;5074104;28;20173;-78
2023/06/11 04:13:28;;;;;;;4.30;3.08;;;27.00;50.60;;;;;;5054811;28;20122;-77
2023/06/11 04:15:54;;;;;;;4.85;3.00;;;27.00;50.60;;;;;;5050645;28;20047;-78
2023/06/11 04:18:20;;;;;;;2.92;2.72;;;27.00;50.60;;;;;;5035752;28;20041;-77
2023/06/11 04:20:48;;;;;;;3.75;3.05;;;27.10;50.70;;;;;;5067854;28;20048;-78
2023/06/11 04:23:15;;;;;;;6.05;2.80;;;27.00;50.70;;;;;;5074008;28;20035;-78
2023/06/11 04:25:43;;;;;;;2.72;2.42;;;27.10;50.60;;;;;;5073923;28;20054;-78
2023/06/11 04:28:10;;;;;;;3.65;3.00;;;27.10;50.60;;;;;;5087702;28;20061;-78
2023/06/11 04:30:36;;;;;;;6.15;3.15;;;27.00;50.60;;;;;;5061859;28;20041;-78
2023/06/11 04:33:04;;;;;;;3.38;2.45;;;27.10;50.70;;;;;;5071366;28;20032;-78
2023/06/11 04:35:34;;;;;;;3.08;2.78;;;27.10;50.70;;;;;;5051541;28;20029;-78
2023/06/11 04:38:03;;;;;;;2.80;2.60;;;27.30;50.70;;;;;;5051462;28;20037;-78
2023/06/11 04:40:30;;;;;;;1.70;1.52;;;27.10;50.70;;;;;;5051183;28;20033;-78
2023/06/11 04:42:57;;;;;;;4.43;2.85;;;27.10;50.50;;;;;;5051225;28;20481;-78
2023/06/11 04:45:26;;;;;;;3.92;2.97;;;27.10;50.60;;;;;;5033240;28;20039;-77
2023/06/11 04:47:53;;;;;;;3.45;2.17;;;27.20;50.60;;;;;;5064655;28;20033;-78
2023/06/11 04:50:20;;;;;;;4.28;3.00;;;27.30;50.60;;;;;;5038184;28;20029;-78
2023/06/11 04:52:51;;;;;;;3.28;2.97;;;27.20;50.60;;;;;;5046837;28;20037;-78
2023/06/11 04:55:21;;;;;;;4.00;3.00;;;27.30;50.60;;;;;;4997328;28;20405;-77
2023/06/11 04:57:49;;;;;;;7.20;2.95;;;27.20;50.60;;;;;;5013765;28;20119;-78
2023/06/11 05:00:16;;;;;;;4.70;3.15;;;27.20;50.60;;;;;;4998178;28;20858;-78
2023/06/11 05:02:44;;;;;;;3.63;2.50;;;27.20;50.60;;;;;;4993695;28;21092;-78
2023/06/11 05:05:12;;;;;;;3.20;2.33;;;27.20;50.70;;;;;;5011100;28;20041;-78
2023/06/11 05:07:38;;;;;;;3.28;2.58;;;27.20;50.70;;;;;;4983993;28;20033;-78
2023/06/11 05:10:05;;;;;;;4.18;3.03;;;27.20;50.70;;;;;;5018229;28;20096;-78
2023/06/11 05:12:32;;;;;;;3.30;2.75;;;27.10;50.70;;;;;;4993677;28;20082;-78
2023/06/11 05:14:58;;;;;;;3.25;2.72;;;27.20;50.70;;;;;;5009292;28;20640;-77
2023/06/11 05:17:25;;;;;;;7.85;2.97;;;27.30;50.70;;;;;;5013254;28;20085;-79
2023/06/11 05:19:51;;;;;;;0.40;0.40;;;27.30;50.70;;;;;;5027269;28;20508;-72
2023/06/11 05:22:18;;;;;;;0.45;0.45;;;27.20;50.40;;;;;;5028770;28;20423;-74
2023/06/11 05:24:44;;;;;;;1.10;0.90;;;27.30;50.50;;;;;;5012955;28;20033;-74
2023/06/11 05:27:10;;;;;;;1.77;1.40;;;27.20;50.50;;;;;;5046277;28;20048;-75
2023/06/11 05:29:37;;;;;;;1.88;1.77;;;27.30;50.40;;;;;;5037861;28;20050;-75
2023/06/11 05:32:05;;;;;;;1.45;1.35;;;27.30;50.30;;;;;;5058229;28;20041;-73
2023/06/11 05:34:33;;;;;;;2.42;1.85;;;27.20;50.80;;;;;;5045835;28;20476;-74
2023/06/11 05:37:02;;;;;;;4.03;1.60;;;27.40;50.50;;;;;;5032612;28;20488;-75
2023/06/11 05:39:29;;;;;;;2.38;2.03;;;27.40;50.70;;;;;;5030256;28;20037;-75
2023/06/11 05:41:55;;;;;;;3.92;2.75;;;27.30;50.20;;;;;;5030274;28;20115;-74
2023/06/11 05:44:22;;;;;;;3.35;2.30;;;27.30;50.00;;;;;;5040343;28;20044;-76
2023/06/11 05:46:49;;;;;;;6.25;2.63;;;27.30;49.70;;;;;;5044916;28;20029;-81
2023/06/11 05:49:16;;;;;;;4.25;2.97;;;27.40;49.40;;;;;;5049744;28;20350;-74
2023/06/11 05:51:41;;;;;;;3.30;2.92;;;27.30;49.10;;;;;;5049930;28;20441;-77
2023/06/11 05:54:07;;;;;;;3.55;2.78;;;27.30;49.10;;;;;;5045680;28;20033;-77
2023/06/11 05:56:35;;;;;;;4.75;3.40;;;27.40;48.90;;;;;;5039685;28;20033;-77
2023/06/11 05:59:01;;;;;;;3.45;3.00;;;27.30;48.60;;;;;;5037392;28;20120;-75
2023/06/11 06:01:28;;;;;;;4.97;3.00;;;27.30;48.30;;;;;;5037467;28;20033;-76
2023/06/11 06:03:55;;;;;;;5.93;3.35;;;27.20;48.10;;;;;;5053842;28;20473;-75
2023/06/11 06:06:21;;;;;;;5.70;3.60;;;27.30;48.10;;;;;;5037073;28;20025;-74
2023/06/11 06:08:58;;;;;;;4.70;3.47;;;27.40;47.90;;;;;;5054677;28;20068;-75
2023/06/11 06:11:25;;;;;;;4.00;3.65;;;27.20;48.00;;;;;;5053277;28;20029;-76
2023/06/11 06:14:19;;;;;;;4.95;3.80;;;27.10;48.70;;;;;;5018550;28;20440;-75
2023/06/11 06:16:47;;;;;;;8.70;4.30;;;27.10;50.20;;;;;;5011495;28;20036;-73
2023/06/11 06:19:16;;;;;;;11.77;7.47;;;27.10;50.90;;;;;;5006099;28;20628;-72
2023/06/11 06:21:42;;;;;;;7.43;6.57;;;27.10;50.30;;;;;;4982437;28;20148;-71
2023/06/11 06:24:10;;;;;;;11.15;7.93;;;27.20;50.20;;;;;;5011809;28;20046;-70
2023/06/11 06:26:40;;;;;;;18.60;10.23;;;27.10;50.90;;;;;;4995584;28;20623;-72
2023/06/11 06:29:10;;;;;;;9.55;6.97;;;27.20;51.80;;;;;;5005690;28;20140;-73
2023/06/11 06:31:38;;;;;;;4.70;4.20;;;27.30;54.50;;;;;;4995702;28;20052;-73
2023/06/11 06:34:05;;;;;;;6.78;4.07;;;27.30;51.10;;;;;;4990149;28;20037;-75
2023/06/11 06:36:35;;;;;;;6.30;3.67;;;27.40;51.10;;;;;;5015227;28;20069;-73
2023/06/11 06:39:04;;;;;;;4.75;3.47;;;27.20;50.40;;;;;;5032022;28;20053;-74
2023/06/11 06:41:30;;;;;;;6.43;3.35;;;27.30;49.50;;;;;;5015007;28;20045;-74
2023/06/11 06:44:01;;;;;;;3.30;3.00;;;27.20;49.40;;;;;;5016880;28;20418;-74
2023/06/11 06:46:29;;;;;;;5.45;3.35;;;27.20;49.00;;;;;;5036367;28;20041;-74
2023/06/11 06:48:57;;;;;;;5.18;3.75;;;27.20;51.40;;;;;;5052373;28;20123;-74
2023/06/11 06:51:23;;;;;;;4.57;3.35;;;27.20;53.10;;;;;;5058803;28;20040;-73
2023/06/11 06:53:53;;;;;;;5.88;3.53;;;27.30;52.30;;;;;;5050279;28;20029;-71
2023/06/11 06:56:19;;;;;;;4.85;3.33;;;27.40;51.10;;;;;;5052315;28;20060;-73
2023/06/11 06:58:45;;;;;;;4.07;3.47;;;27.40;50.10;;;;;;5052414;28;20045;-73
2023/06/11 07:01:11;;;;;;;3.80;3.45;;;27.30;49.80;;;;;;5052618;28;20037;-74
2023/06/11 07:03:37;;;;;;;6.03;3.53;;;27.50;50.00;;;;;;5052129;28;20036;-74
2023/06/11 07:06:04;;;;;;;4.60;3.60;;;27.40;50.00;;;;;;5052050;28;20063;-74
2023/06/11 07:08:31;;;;;;;4.28;3.88;;;27.40;49.80;;;;;;5051571;28;20036;-73
2023/06/11 07:10:58;;;;;;;5.60;3.95;;;27.40;49.80;;;;;;5052302;28;20385;-73
2023/06/11 07:13:45;;;;;;;4.82;3.70;;;27.50;49.90;;;;;;5062217;28;20044;-72
2023/06/11 07:16:11;;;;;;;4.63;3.13;;;27.50;49.70;;;;;;5072017;28;20032;-73
2023/06/11 07:18:41;;;;;;;3.78;3.25;;;27.50;49.40;;;;;;5061408;28;20037;-73
2023/06/11 07:21:08;;;;;;;5.32;3.45;;;27.50;49.40;;;;;;5053165;28;20178;-72
2023/06/11 07:23:34;;;;;;;7.13;3.38;;;27.50;49.50;;;;;;5051723;28;20128;-72
2023/06/11 07:26:02;;;;;;;13.75;7.38;;;27.50;49.70;;;;;;5035629;28;20032;-73
2023/06/11 07:28:29;;;;;;;5.78;4.32;;;27.50;49.50;;;;;;5071647;28;20035;-72
2023/06/11 07:30:57;;;;;;;4.20;3.85;;;27.50;49.10;;;;;;5071806;28;20066;-74
2023/06/11 07:33:24;;;;;;;5.00;3.92;;;27.50;49.10;;;;;;5071910;28;20049;-74
2023/06/11 07:35:52;;;;;;;7.63;4.32;;;27.50;49.00;;;;;;5071368;28;20040;-76
2023/06/11 07:38:18;;;;;;;4.97;3.78;;;27.50;49.00;;;;;;5070913;28;20086;-75
2023/06/11 07:40:44;;;;;;;5.05;4.28;;;27.40;49.00;;;;;;5054283;28;20048;-74
2023/06/11 07:43:10;;;;;;;5.72;3.58;;;27.50;48.80;;;;;;5052020;28;20025;-75
2023/06/11 07:45:36;;;;;;;9.60;3.47;;;27.50;50.60;;;;;;5052147;28;20464;-76
2023/06/11 07:48:02;;;;;;;17.25;4.60;;;27.50;51.30;;;;;;5055847;28;20044;-75
2023/06/11 07:50:29;;;;;;;5.78;3.80;;;27.70;50.10;;;;;;5045609;28;20104;-76
2023/06/11 07:52:56;;;;;;;4.43;3.35;;;27.60;49.60;;;;;;5032050;28;20025;-74
2023/06/11 07:55:24;;;;;;;5.78;4.25;;;27.70;49.20;;;;;;4998872;28;20033;-75
2023/06/11 07:57:50;;;;;;;4.85;3.50;;;27.70;48.70;;;;;;5046684;28;20447;-75
2023/06/11 08:00:17;;;;;;;7.97;3.78;;;27.40;48.90;;;;;;5050585;28;20034;-75
2023/06/11 08:02:46;;;;;;;8.63;4.15;;;27.50;48.90;;;;;;5066523;28;20032;-75
2023/06/11 08:05:17;;;;;;;8.02;4.15;;;27.40;49.00;;;;;;5072230;28;20033;-74
2023/06/11 08:07:44;;;;;;;4.97;4.45;;;27.50;49.20;;;;;;5052550;28;20029;-75
2023/06/11 08:10:10;;;;;;;7.32;4.25;;;27.50;49.30;;;;;;5040106;28;20029;-75
2023/06/11 08:12:36;;;;;;;5.60;4.43;;;27.60;49.20;;;;;;5052457;28;20071;-75
2023/06/11 08:15:03;;;;;;;5.85;3.95;;;27.50;49.10;;;;;;5065321;28;20036;-75
2023/06/11 08:17:30;;;;;;;4.18;3.78;;;27.50;49.00;;;;;;5063195;28;20487;-74
2023/06/11 08:19:56;;;;;;;8.07;4.55;;;27.60;48.90;;;;;;5048395;28;20025;-75
2023/06/11 08:22:21;;;;;;;4.60;3.83;;;27.60;48.90;;;;;;5046389;28;20069;-73
2023/06/11 08:24:48;;;;;;;5.57;4.78;;;27.50;48.80;;;;;;5068294;28;20028;-74
2023/06/11 08:27:14;;;;;;;5.40;4.53;;;27.50;48.80;;;;;;5032542;28;20037;-74
2023/06/11 08:29:41;;;;;;;3.95;3.65;;;27.60;48.80;;;;;;5013263;28;20099;-74
2023/06/11 08:32:07;;;;;;;4.97;4.47;;;27.60;48.70;;;;;;5030689;28;20048;-74
2023/06/11 08:34:33;;;;;;;5.07;4.35;;;27.50;48.80;;;;;;5030435;28;20115;-74
2023/06/11 08:37:00;;;;;;;5.80;4.25;;;27.50;48.80;;;;;;5031919;28;20037;-74
2023/06/11 08:39:26;;;;;;;4.30;3.90;;;27.60;48.80;;;;;;5049739;28;20060;-74
2023/06/11 08:41:52;;;;;;;4.93;4.40;;;27.70;48.50;;;;;;5051890;28;20370;-74
2023/06/11 08:44:20;;;;;;;4.65;4.25;;;27.60;48.50;;;;;;5051728;28;20079;-73
2023/06/11 08:46:48;;;;;;;5.07;3.97;;;27.60;48.80;;;;;;5051335;28;20480;-74
2023/06/11 08:49:21;;;;;;;4.70;4.25;;;27.60;48.50;;;;;;5051585;28;20051;-74
2023/06/11 08:51:48;;;;;;;4.47;4.07;;;27.50;48.50;;;;;;5051415;28;20118;-74
2023/06/11 08:54:15;;;;;;;5.75;4.20;;;27.70;48.50;;;;;;5051608;28;20357;-74
2023/06/11 08:56:43;;;;;;;5.72;4.30;;;27.60;48.50;;;;;;5051100;28;20033;-76
2023/06/11 08:59:09;;;;;;;5.72;4.00;;;27.50;48.60;;;;;;5050154;28;20048;-73
2023/06/11 09:01:35;;;;;;;4.57;4.05;;;27.60;48.40;;;;;;5051311;28;20033;-74
2023/06/11 09:04:01;;;;;;;4.25;3.85;;;27.60;48.40;;;;;;5051081;28;20366;-73
2023/06/11 09:06:30;;;;;;;4.93;4.32;;;27.50;48.40;;;;;;5051305;28;20037;-74
2023/06/11 09:09:00;;;;;;;5.53;4.78;;;27.40;48.40;;;;;;5051454;28;20036;-74
2023/06/11 09:11:37;;;;;;;5.30;4.10;;;27.50;48.50;;;;;;5051440;28;20067;-74
2023/06/11 09:14:04;;;;;;;5.68;3.92;;;27.40;48.50;;;;;;5038273;28;20021;-74
2023/06/11 09:16:41;;;;;;;5.93;4.32;;;27.40;48.50;;;;;;5047453;28;20037;-76
2023/06/11 09:19:18;;;;;;;7.28;5.10;;;27.40;48.50;;;;;;5068646;28;20036;-74
2023/06/11 09:21:52;;;;;;;4.70;4.22;;;27.40;48.60;;;;;;5063209;28;20041;-74
2023/06/11 09:24:19;;;;;;;4.18;3.67;;;27.30;48.70;;;;;;5057197;28;20029;-75
2023/06/11 09:26:56;;;;;;;5.70;4.95;;;27.40;48.70;;;;;;5046416;28;20397;-76
2023/06/11 09:29:27;;;;;;;6.68;4.20;;;27.40;48.70;;;;;;5051191;28;20032;-76
2023/06/11 09:32:06;;;;;;;6.25;4.05;;;27.40;49.00;;;;;;5056314;28;20017;-76
2023/06/11 09:34:32;;;;;;;6.82;4.28;;;27.50;49.20;;;;;;5046128;28;20041;-75
2023/06/11 09:37:00;;;;;;;7.50;4.25;;;27.30;49.20;;;;;;5042891;28;20037;-76
2023/06/11 09:39:27;;;;;;;5.70;4.50;;;27.30;49.20;;;;;;5037493;28;20139;-76
2023/06/11 09:41:54;;;;;;;6.38;5.45;;;27.40;49.30;;;;;;5055780;28;20094;-76
2023/06/11 09:44:20;;;;;;;5.03;4.53;;;27.50;49.40;;;;;;5050616;28;20037;-76
2023/06/11 09:46:47;;;;;;;5.68;4.30;;;27.40;49.50;;;;;;5054819;28;20087;-75
2023/06/11 09:49:15;;;;;;;5.63;5.13;;;27.40;49.80;;;;;;5054441;28;20043;-76
2023/06/11 09:51:42;;;;;;;5.18;4.68;;;27.40;50.00;;;;;;5054847;28;20029;-76
2023/06/11 09:54:08;;;;;;;5.40;4.10;;;27.50;50.00;;;;;;5062494;28;20034;-76
2023/06/11 09:56:38;;;;;;;6.75;4.97;;;27.60;49.80;;;;;;5073208;28;20474;-75
2023/06/11 09:59:05;;;;;;;6.00;4.57;;;27.40;49.80;;;;;;5062863;28;20040;-73
2023/06/11 10:01:33;;;;;;;5.75;4.80;;;27.40;49.80;;;;;;5054425;28;20025;-75
2023/06/11 10:04:00;;;;;;;9.50;5.07;;;27.50;51.80;;;;;;5059595;28;20494;-74
2023/06/11 10:06:35;;;;;;;5.88;5.38;;;27.60;52.40;;;;;;5059348;28;20085;-74
2023/06/11 10:09:07;;;;;;;6.47;5.50;;;27.70;50.20;;;;;;5041831;28;20037;-75
2023/06/11 10:11:38;;;;;;;6.13;5.20;;;27.70;51.00;;;;;;5057312;28;21190;-76
2023/06/11 10:14:11;;;;;;;5.63;4.93;;;27.60;50.10;;;;;;5056512;28;20047;-75
2023/06/11 10:16:37;;;;;;;8.82;5.53;;;27.60;49.80;;;;;;5060790;28;20025;-73
2023/06/11 10:19:08;;;;;;;9.75;5.35;;;27.70;51.90;;;;;;5055959;28;20036;-74
2023/06/11 10:21:38;;;;;;;7.75;5.88;;;27.70;51.20;;;;;;5037127;28;20095;-74
2023/06/11 10:24:05;;;;;;;15.82;5.07;;;27.70;50.70;;;;;;5052593;28;20039;-73
2023/06/11 10:26:35;;;;;;;8.25;4.72;;;27.80;50.40;;;;;;5050377;28;20029;-75
2023/06/11 10:29:09;;;;;;;7.22;5.03;;;27.80;50.80;;;;;;5045389;28;20064;-75
2023/06/11 10:31:40;;;;;;;7.63;4.72;;;27.80;51.00;;;;;;5045437;28;20023;-74
2023/06/11 10:34:06;;;;;;;5.40;4.93;;;27.90;50.30;;;;;;5049248;28;20031;-73
2023/06/11 10:36:37;;;;;;;6.18;4.72;;;28.00;50.50;;;;;;5058284;28;20105;-75
2023/06/11 10:39:11;;;;;;;5.40;4.70;;;28.00;50.20;;;;;;5051528;28;20036;-72
2023/06/11 10:41:41;;;;;;;8.27;5.82;;;28.10;49.90;;;;;;5053121;28;20370;-75
2023/06/11 10:44:09;;;;;;;5.25;4.75;;;28.10;50.20;;;;;;5056031;28;20175;-75
2023/06/11 10:46:54;;;;;;;7.22;5.15;;;28.20;49.90;;;;;;5044030;28;20489;-75
2023/06/11 10:49:25;;;;;;;5.40;4.90;;;28.20;49.70;;;;;;5060771;28;20036;-75
2023/06/11 10:51:52;;;;;;;5.97;4.43;;;28.10;50.20;;;;;;5051228;28;20033;-74
2023/06/11 10:54:48;;;;;;;6.22;4.32;;;28.20;52.80;;;;;;5057641;28;20044;-73
2023/06/11 10:57:14;;;;;;;13.13;5.13;;;28.40;54.00;;;;;;5040269;28;20046;-74
2023/06/11 10:59:41;;;;;;;9.48;4.93;;;28.60;54.70;;;;;;5035896;28;20061;-73
2023/06/11 11:02:13;;;;;;;5.85;5.35;;;28.60;52.40;;;;;;5014867;28;20061;-75
2023/06/11 11:05:06;;;;;;;6.55;5.18;;;28.70;52.00;;;;;;5029318;28;20041;-74
2023/06/11 11:07:34;;;;;;;4.95;4.38;;;28.60;51.00;;;;;;5030369;28;20037;-73
2023/06/11 11:10:01;;;;;;;5.30;4.45;;;28.60;50.50;;;;;;5043172;28;20033;-73
2023/06/11 11:12:33;;;;;;;5.57;4.95;;;28.50;50.10;;;;;;5048781;28;20116;-74
2023/06/11 11:15:00;;;;;;;5.47;4.70;;;28.60;49.80;;;;;;5030811;28;20589;-73
2023/06/11 11:17:26;;;;;;;6.60;4.97;;;28.70;49.50;;;;;;5034321;28;20033;-76
2023/06/11 11:19:51;;;;;;;5.15;4.63;;;28.60;49.40;;;;;;5033861;28;20417;-74
2023/06/11 11:22:20;;;;;;;7.38;5.53;;;28.60;49.20;;;;;;5050457;28;20548;-74
2023/06/11 11:24:46;;;;;;;10.07;5.25;;;28.70;49.10;;;;;;5045558;28;20155;-73
2023/06/11 11:27:15;;;;;;;4.93;4.25;;;28.50;49.10;;;;;;5025865;28;20136;-73
2023/06/11 11:29:41;;;;;;;5.60;5.10;;;28.60;49.10;;;;;;5038425;28;20399;-74
2023/06/11 11:32:07;;;;;;;6.05;4.82;;;28.60;49.20;;;;;;5031661;28;20038;-73
2023/06/11 11:34:40;;;;;;;5.97;4.55;;;28.50;49.00;;;;;;5049868;28;20120;-73
2023/06/11 11:37:06;;;;;;;5.60;5.05;;;28.50;48.90;;;;;;5062531;28;20484;-73
2023/06/11 11:39:32;;;;;;;6.25;5.40;;;28.50;49.00;;;;;;5056741;28;20087;-74
2023/06/11 11:42:00;;;;;;;9.10;5.10;;;28.50;49.30;;;;;;5043334;28;20160;-72
2023/06/11 11:44:27;;;;;;;8.77;5.75;;;28.50;49.50;;;;;;5031403;28;20083;-74
2023/06/11 11:46:57;;;;;;;6.50;5.00;;;28.50;49.60;;;;;;5037707;28;20440;-73
2023/06/11 11:49:33;;;;;;;6.95;5.05;;;28.50;49.60;;;;;;5036329;28;20179;-74
2023/06/11 11:52:00;;;;;;;8.05;5.13;;;28.40;49.50;;;;;;5050248;28;20037;-74
2023/06/11 11:54:27;;;;;;;5.53;4.78;;;28.50;49.40;;;;;;5033186;28;20060;-74
2023/06/11 11:57:03;;;;;;;7.72;4.50;;;28.50;49.20;;;;;;5041675;28;20350;-73
2023/06/11 11:59:35;;;;;;;11.07;4.60;;;28.30;49.20;;;;;;5029936;28;20045;-74
2023/06/11 12:02:02;;;;;;;5.25;4.72;;;28.30;49.10;;;;;;5029898;28;20572;-73
2023/06/11 12:04:40;;;;;;;5.78;4.20;;;28.40;49.00;;;;;;5030046;28;20048;-74
2023/06/11 12:07:10;;;;;;;5.40;4.90;;;28.40;48.90;;;;;;5030194;28;20041;-74
2023/06/11 12:09:38;;;;;;;7.20;4.63;;;28.40;48.90;;;;;;5030080;28;20072;-74
2023/06/11 12:12:08;;;;;;;7.68;4.38;;;28.40;48.90;;;;;;5030268;28;20038;-74
2023/06/11 12:14:37;;;;;;;6.95;5.25;;;28.30;48.90;;;;;;5047604;28;20072;-74
2023/06/11 12:17:10;;;;;;;6.63;5.38;;;28.30;48.90;;;;;;5065208;28;20472;-74
2023/06/11 12:19:37;;;;;;;5.70;5.07;;;28.30;48.90;;;;;;5071840;28;20060;-74
2023/06/11 12:22:04;;;;;;;4.55;4.15;;;28.20;48.90;;;;;;5071602;28;20044;-74
2023/06/11 12:24:32;;;;;;;5.90;5.35;;;28.30;49.00;;;;;;5038791;28;20064;-74
2023/06/11 12:26:59;;;;;;;4.93;4.43;;;28.10;49.00;;;;;;5048098;28;20032;-74
2023/06/11 12:29:25;;;;;;;4.60;4.00;;;28.30;49.00;;;;;;5060768;28;20028;-73
2023/06/11 12:31:51;;;;;;;4.65;4.25;;;28.20;49.00;;;;;;5064279;28;20069;-74
2023/06/11 12:34:18;;;;;;;5.05;4.55;;;28.10;49.00;;;;;;5063742;28;20033;-74
2023/06/11 12:36:44;;;;;;;4.97;4.10;;;28.10;49.10;;;;;;5051967;28;20112;-74
2023/06/11 12:39:11;;;;;;;5.38;4.88;;;28.10;49.10;;;;;;5062659;28;20056;-74
2023/06/11 12:41:37;;;;;;;8.00;5.72;;;28.10;49.10;;;;;;5066638;28;20040;-74
2023/06/11 12:44:03;;;;;;;10.07;7.40;;;28.10;49.00;;;;;;5061604;28;20477;-74
2023/06/11 12:46:30;;;;;;;6.35;5.57;;;28.00;48.90;;;;;;5060508;28;20040;-74
2023/06/11 12:48:56;;;;;;;5.57;5.03;;;28.10;48.90;;;;;;5070806;28;20036;-74
2023/06/11 12:51:23;;;;;;;5.22;4.72;;;28.00;48.90;;;;;;5070819;28;20475;-74